createdAt,value
2022-08-30T00:01:32.875Z,1.80
2022-08-30T00:04:06.348Z,2.20
2022-08-30T00:06:37.151Z,2.20
2022-08-30T00:09:08.004Z,2.10
2022-08-30T00:11:38.737Z,2.70
2022-08-30T00:14:12.225Z,2.20
2022-08-30T00:16:43.616Z,2.25
2022-08-30T00:19:14.500Z,2.50
2022-08-30T00:21:45.637Z,2.28
2022-08-30T00:24:16.404Z,2.13
2022-08-30T00:26:47.141Z,2.03
2022-08-30T00:29:20.853Z,2.65
2022-08-30T00:31:51.621Z,2.75
2022-08-30T00:34:22.681Z,1.95
2022-08-30T00:36:53.448Z,1.80
2022-08-30T00:39:24.502Z,1.95
2022-08-30T00:41:55.628Z,1.85
2022-08-30T00:44:29.021Z,2.05
2022-08-30T00:47:00.020Z,2.72
2022-08-30T00:49:32.445Z,2.55
2022-08-30T00:52:05.004Z,2.20
2022-08-30T00:54:37.188Z,1.95
2022-08-30T00:57:09.022Z,2.85
2022-08-30T00:59:43.689Z,2.47
2022-08-30T01:02:14.969Z,2.65
2022-08-30T01:04:47.917Z,2.05
2022-08-30T01:07:18.768Z,2.17
2022-08-30T01:09:49.847Z,2.42
2022-08-30T01:12:20.798Z,2.20
2022-08-30T01:14:54.198Z,2.40
2022-08-30T01:17:25.550Z,2.65
2022-08-30T01:19:59.655Z,2.28
2022-08-30T01:22:36.482Z,2.78
2022-08-30T01:27:45.852Z,2.20
2022-08-30T01:30:16.930Z,2.42
2022-08-30T01:32:50.091Z,1.95
2022-08-30T01:35:23.441Z,2.20
2022-08-30T01:37:54.804Z,1.88
2022-08-30T01:40:28.835Z,2.65
2022-08-30T01:42:59.645Z,2.45
2022-08-30T01:45:30.442Z,2.40
2022-08-30T01:48:02.635Z,2.03
2022-08-30T01:50:34.758Z,2.30
2022-08-30T01:53:07.603Z,2.30
2022-08-30T01:55:46.122Z,2.40
2022-08-30T01:58:17.259Z,2.05
2022-08-30T02:00:48.105Z,2.10
2022-08-30T02:03:19.704Z,1.90
2022-08-30T02:05:50.938Z,3.15
2022-08-30T02:08:21.978Z,2.33
2022-08-30T02:10:55.702Z,2.20
2022-08-30T02:13:26.510Z,2.42
2022-08-30T02:15:57.688Z,2.00
2022-08-30T02:18:29.579Z,2.65
2022-08-30T02:21:01.089Z,2.00
2022-08-30T02:23:32.281Z,2.10
2022-08-30T02:26:06.061Z,2.72
2022-08-30T02:28:42.618Z,3.03
2022-08-30T02:31:20.864Z,2.80
2022-08-30T02:33:54.199Z,2.60
2022-08-30T02:36:25.513Z,1.75
2022-08-30T02:38:56.282Z,2.67
2022-08-30T02:41:29.970Z,2.85
2022-08-30T02:44:00.932Z,2.20
2022-08-30T02:46:33.228Z,2.22
2022-08-30T02:51:56.457Z,2.47
2022-08-30T02:54:28.624Z,2.40
2022-08-30T02:57:05.015Z,2.20
2022-08-30T02:59:41.906Z,2.38
2022-08-30T03:02:12.824Z,2.30
2022-08-30T03:04:44.544Z,1.77
2022-08-30T03:07:15.733Z,1.83
2022-08-30T03:09:46.825Z,2.13
2022-08-30T03:12:20.224Z,2.20
2022-08-30T03:14:51.452Z,2.33
2022-08-30T03:17:22.365Z,2.15
2022-08-30T03:19:53.404Z,1.80
2022-08-30T03:22:24.302Z,2.40
2022-08-30T03:24:58.170Z,2.33
2022-08-30T03:27:32.628Z,2.25
2022-08-30T03:30:03.360Z,2.38
2022-08-30T03:32:34.149Z,1.95
2022-08-30T03:35:04.922Z,2.25
2022-08-30T03:37:36.115Z,2.08
2022-08-30T03:40:09.341Z,2.20
2022-08-30T03:42:44.359Z,2.08
2022-08-30T03:45:15.709Z,2.20
2022-08-30T03:47:46.568Z,1.63
2022-08-30T03:50:18.648Z,1.88
2022-08-30T03:52:49.425Z,2.28
2022-08-30T03:55:21.070Z,2.35
2022-08-30T03:57:54.751Z,2.78
2022-08-30T04:00:26.875Z,2.03
2022-08-30T04:02:57.712Z,2.35
2022-08-30T04:05:28.719Z,1.83
2022-08-30T04:08:00.072Z,1.88
2022-08-30T04:10:30.925Z,2.75
2022-08-30T04:13:05.923Z,2.40
2022-08-30T04:15:36.974Z,2.30
2022-08-30T04:18:07.845Z,2.30
2022-08-30T04:20:38.726Z,2.63
2022-08-30T04:23:10.107Z,2.42
2022-08-30T04:25:42.570Z,2.10
2022-08-30T04:28:16.476Z,2.33
2022-08-30T04:30:48.321Z,1.90
2022-08-30T04:33:20.267Z,2.05
2022-08-30T04:35:53.062Z,2.97
2022-08-30T04:38:29.848Z,2.95
2022-08-30T04:41:01.193Z,2.08
2022-08-30T04:43:34.537Z,2.35
2022-08-30T04:46:09.778Z,1.77
2022-08-30T04:48:41.219Z,2.30
2022-08-30T04:51:14.819Z,2.60
2022-08-30T04:53:46.589Z,2.47
2022-08-30T04:56:22.512Z,1.88
2022-08-30T04:58:57.383Z,2.85
2022-08-30T05:01:32.243Z,2.25
2022-08-30T05:04:15.408Z,2.42
2022-08-30T05:06:46.500Z,2.30
2022-08-30T05:09:17.234Z,2.53
2022-08-30T05:11:48.506Z,2.60
2022-08-30T05:14:21.936Z,1.92
2022-08-30T05:16:52.651Z,2.50
2022-08-30T05:19:23.810Z,2.38
2022-08-30T05:21:54.796Z,2.67
2022-08-30T05:24:25.578Z,2.45
2022-08-30T05:26:56.611Z,2.25
2022-08-30T05:29:30.142Z,2.63
2022-08-30T05:32:01.210Z,2.60
2022-08-30T05:34:34.884Z,2.70
2022-08-30T05:37:05.868Z,2.55
2022-08-30T05:39:51.034Z,2.47
2022-08-30T05:42:23.147Z,2.25
2022-08-30T05:44:58.390Z,2.28
2022-08-30T05:47:29.532Z,2.63
2022-08-30T05:50:00.333Z,2.90
2022-08-30T05:52:31.446Z,2.58
2022-08-30T05:55:04.392Z,2.55
2022-08-30T05:57:36.641Z,2.50
2022-08-30T06:00:14.771Z,2.80
2022-08-30T06:02:46.262Z,2.85
2022-08-30T06:05:17.373Z,2.55
2022-08-30T06:07:48.283Z,3.10
2022-08-30T06:10:19.133Z,2.00
2022-08-30T06:12:49.922Z,2.35
2022-08-30T06:15:23.405Z,2.40
2022-08-30T06:17:54.365Z,2.20
2022-08-30T06:20:25.260Z,2.13
2022-08-30T06:22:56.292Z,2.83
2022-08-30T06:25:27.481Z,2.10
2022-08-30T06:28:13.393Z,2.40
2022-08-30T06:30:47.758Z,2.05
2022-08-30T06:33:18.688Z,2.35
2022-08-30T06:35:59.222Z,2.45
2022-08-30T06:38:31.081Z,2.00
2022-08-30T06:41:02.073Z,2.00
2022-08-30T06:43:33.411Z,2.20
2022-08-30T06:46:11.012Z,2.70
2022-08-30T06:48:44.060Z,2.30
2022-08-30T06:51:17.809Z,2.58
2022-08-30T06:53:50.983Z,2.30
2022-08-30T06:56:22.842Z,2.38
2022-08-30T06:58:54.017Z,2.65
2022-08-30T07:01:30.409Z,3.33
2022-08-30T07:04:02.058Z,2.55
2022-08-30T07:06:33.596Z,2.15
2022-08-30T07:09:04.882Z,2.80
2022-08-30T07:11:37.891Z,2.00
2022-08-30T07:14:09.498Z,2.08
2022-08-30T07:16:43.625Z,1.90
2022-08-30T07:19:14.681Z,3.22
2022-08-30T07:21:53.112Z,2.47
2022-08-30T07:24:25.186Z,2.92
2022-08-30T07:26:56.056Z,3.33
2022-08-30T07:29:26.822Z,3.03
2022-08-30T07:32:00.183Z,3.15
2022-08-30T07:34:31.346Z,2.83
2022-08-30T07:37:02.358Z,2.47
2022-08-30T07:39:35.772Z,2.90
2022-08-30T07:42:10.852Z,3.13
2022-08-30T07:44:41.722Z,3.30
2022-08-30T07:47:16.989Z,2.70
2022-08-30T07:49:47.726Z,2.50
2022-08-30T07:52:18.456Z,3.40
2022-08-30T07:54:52.781Z,2.65
2022-08-30T07:57:23.863Z,2.88
2022-08-30T07:59:55.330Z,2.65
2022-08-30T08:02:29.443Z,2.70
2022-08-30T08:05:01.093Z,2.42
2022-08-30T08:07:33.262Z,2.80
2022-08-30T08:10:04.300Z,3.08
2022-08-30T08:12:35.146Z,2.90
2022-08-30T08:15:08.729Z,3.05
2022-08-30T08:17:42.858Z,2.60
2022-08-30T08:20:14.777Z,3.63
2022-08-30T08:22:45.585Z,2.53
2022-08-30T08:25:16.450Z,2.60
2022-08-30T08:27:51.154Z,2.40
2022-08-30T08:30:24.273Z,2.58
2022-08-30T08:32:58.215Z,3.15
2022-08-30T08:35:29.470Z,2.78
2022-08-30T08:38:00.394Z,2.97
2022-08-30T08:40:32.985Z,2.88
2022-08-30T08:43:08.598Z,3.67
2022-08-30T08:45:50.616Z,2.63
2022-08-30T08:48:51.948Z,2.80
2022-08-30T08:51:41.536Z,2.85
2022-08-30T08:54:18.651Z,3.13
2022-08-30T08:56:49.431Z,3.08
2022-08-30T08:59:21.996Z,3.53
2022-08-30T09:01:54.435Z,3.17
2022-08-30T09:04:41.036Z,2.80
2022-08-30T09:07:23.252Z,3.10
2022-08-30T09:09:54.229Z,2.63
2022-08-30T09:12:25.251Z,3.53
2022-08-30T09:14:58.053Z,2.95
2022-08-30T09:17:30.299Z,2.80
2022-08-30T09:20:04.885Z,2.63
2022-08-30T09:22:38.313Z,3.17
2022-08-30T09:25:11.994Z,3.15
2022-08-30T09:27:45.353Z,3.00
2022-08-30T09:30:21.433Z,3.15
2022-08-30T09:32:57.706Z,3.35
2022-08-30T09:35:44.483Z,3.25
2022-08-30T09:38:21.577Z,3.00
2022-08-30T09:40:55.239Z,3.40
2022-08-30T09:43:29.748Z,2.95
2022-08-30T09:46:16.088Z,3.55
2022-08-30T09:48:48.797Z,3.37
2022-08-30T09:51:50.023Z,3.95
2022-08-30T09:54:30.278Z,2.70
2022-08-30T09:57:12.879Z,2.85
2022-08-30T09:59:50.059Z,3.08
2022-08-30T10:02:46.866Z,2.67
2022-08-30T10:05:25.247Z,3.00
2022-08-30T10:08:19.588Z,2.97
2022-08-30T10:10:56.045Z,3.25
2022-08-30T10:14:02.199Z,2.70
2022-08-30T10:16:44.000Z,3.05
2022-08-30T10:19:30.097Z,3.42
2022-08-30T10:22:05.451Z,3.13
2022-08-30T10:24:45.817Z,2.80
2022-08-30T10:27:21.746Z,3.30
2022-08-30T10:29:59.459Z,3.13
2022-08-30T10:32:36.108Z,3.85
2022-08-30T10:35:12.198Z,2.90
2022-08-30T10:37:49.622Z,3.75
2022-08-30T10:40:42.352Z,3.88
2022-08-30T10:43:27.820Z,3.40
2022-08-30T10:46:04.436Z,3.20
2022-08-30T10:48:44.349Z,3.05
2022-08-30T10:51:23.747Z,3.03
2022-08-30T10:54:00.036Z,3.42
2022-08-30T10:56:34.308Z,3.40
2022-08-30T10:59:11.927Z,3.03
2022-08-30T11:02:06.912Z,2.80
2022-08-30T11:05:16.495Z,2.75
2022-08-30T11:07:58.811Z,3.67
2022-08-30T11:10:41.527Z,2.92
2022-08-30T11:13:26.987Z,3.15
2022-08-30T11:16:05.017Z,3.00
2022-08-30T11:18:44.656Z,3.22
2022-08-30T11:21:29.414Z,2.92
2022-08-30T11:24:11.363Z,2.88
2022-08-30T11:27:01.254Z,2.95
2022-08-30T11:29:43.773Z,2.80
2022-08-30T11:33:02.191Z,3.00
2022-08-30T11:35:45.935Z,3.53
2022-08-30T11:38:43.989Z,3.05
2022-08-30T11:41:17.304Z,3.20
2022-08-30T11:43:57.374Z,2.90
2022-08-30T11:46:46.835Z,2.95
2022-08-30T11:49:46.441Z,3.33
2022-08-30T11:52:43.021Z,3.20
2022-08-30T11:55:40.712Z,3.30
2022-08-30T12:00:52.957Z,3.13
2022-08-30T12:03:36.329Z,2.50
2022-08-30T12:06:09.608Z,2.92
2022-08-30T12:09:02.663Z,3.38
2022-08-30T12:11:57.219Z,2.92
2022-08-30T12:14:48.207Z,3.53
2022-08-30T12:17:45.067Z,2.92
2022-08-30T12:20:31.547Z,3.10
2022-08-30T12:23:23.114Z,2.75
2022-08-30T12:26:11.664Z,3.08
2022-08-30T12:28:43.424Z,2.97
2022-08-30T12:31:17.986Z,2.72
2022-08-30T12:33:53.726Z,3.47
2022-08-30T12:36:39.809Z,3.17
2022-08-30T12:39:13.030Z,3.00
2022-08-30T12:41:44.615Z,3.28
2022-08-30T12:44:19.981Z,2.80
2022-08-30T12:46:58.959Z,2.63
2022-08-30T12:49:34.497Z,3.20
2022-08-30T12:52:26.026Z,3.15
2022-08-30T12:54:59.508Z,3.10
2022-08-30T12:57:41.447Z,2.75
2022-08-30T13:00:14.864Z,2.75
2022-08-30T13:02:52.185Z,3.13
2022-08-30T13:05:40.503Z,3.00
2022-08-30T13:08:23.037Z,2.97
2022-08-30T13:10:56.855Z,2.88
2022-08-30T13:13:38.248Z,3.20
2022-08-30T13:16:29.291Z,3.03
2022-08-30T13:19:29.470Z,3.38
2022-08-30T13:22:02.406Z,3.13
2022-08-30T13:24:35.993Z,3.15
2022-08-30T13:27:11.599Z,2.85
2022-08-30T13:29:42.417Z,2.80
2022-08-30T13:32:14.295Z,2.55
2022-08-30T13:34:45.655Z,2.90
2022-08-30T13:40:17.989Z,3.05
2022-08-30T13:42:49.634Z,3.45
2022-08-30T13:48:17.440Z,3.10
2022-08-30T13:50:57.542Z,3.47
2022-08-30T13:56:25.879Z,3.38
2022-08-30T13:58:57.212Z,3.30
2022-08-30T14:01:29.489Z,3.45
2022-08-30T14:04:16.381Z,3.00
2022-08-30T14:09:39.565Z,3.40
2022-08-30T14:12:13.594Z,3.10
2022-08-30T14:14:44.844Z,3.70
2022-08-30T14:17:16.940Z,3.05
2022-08-30T14:19:50.012Z,2.97
2022-08-30T14:22:22.243Z,3.22
2022-08-30T14:24:54.715Z,3.05
2022-08-30T14:27:30.409Z,3.58
2022-08-30T14:30:03.156Z,4.13
2022-08-30T14:32:35.998Z,3.00
2022-08-30T14:35:22.660Z,3.05
2022-08-30T14:37:56.931Z,3.13
2022-08-30T14:40:29.187Z,3.35
2022-08-30T14:43:03.974Z,3.25
2022-08-30T14:45:35.533Z,3.40
2022-08-30T14:48:11.739Z,3.20
2022-08-30T14:50:44.169Z,3.28
2022-08-30T14:53:15.896Z,3.10
2022-08-30T14:55:48.670Z,3.60
2022-08-30T14:58:23.206Z,3.42
2022-08-30T15:00:55.440Z,3.72
2022-08-30T15:03:27.977Z,3.00
2022-08-30T15:05:59.852Z,3.13
2022-08-30T15:08:31.539Z,3.35
2022-08-30T15:11:03.557Z,3.28
2022-08-30T15:13:39.557Z,3.83
2022-08-30T15:16:15.630Z,3.40
2022-08-30T15:18:49.192Z,3.53
2022-08-30T15:21:27.790Z,3.20
2022-08-30T15:24:00.815Z,3.35
2022-08-30T15:26:32.764Z,3.10
2022-08-30T15:29:07.264Z,3.85
2022-08-30T15:31:39.236Z,3.63
2022-08-30T15:34:11.343Z,3.53
2022-08-30T15:36:44.383Z,3.40
2022-08-30T15:39:16.733Z,3.10
2022-08-30T15:41:54.595Z,3.28
2022-08-30T15:44:31.781Z,4.00
2022-08-30T15:47:04.146Z,4.10
2022-08-30T15:49:36.624Z,3.38
2022-08-30T15:52:09.418Z,3.47
2022-08-30T15:54:44.411Z,3.47
2022-08-30T15:57:18.417Z,3.47
2022-08-30T15:59:54.961Z,3.47
2022-08-30T16:02:27.680Z,3.63
2022-08-30T16:04:58.807Z,3.53
2022-08-30T16:07:29.682Z,3.47
2022-08-30T16:10:00.511Z,3.90
2022-08-30T16:12:31.643Z,3.58
2022-08-30T16:15:05.502Z,3.60
2022-08-30T16:17:36.425Z,3.65
2022-08-30T16:20:14.293Z,3.58
2022-08-30T16:22:46.042Z,3.65
2022-08-30T16:25:18.723Z,3.53
2022-08-30T16:27:49.589Z,4.20
2022-08-30T16:30:23.511Z,4.00
2022-08-30T16:32:54.473Z,3.38
2022-08-30T16:35:25.291Z,3.95
2022-08-30T16:37:56.267Z,3.75
2022-08-30T16:40:27.189Z,3.75
2022-08-30T16:42:58.206Z,3.55
2022-08-30T16:45:34.747Z,3.78
2022-08-30T16:48:06.400Z,3.83
2022-08-30T16:50:39.075Z,3.58
2022-08-30T16:53:11.001Z,3.90
2022-08-30T16:55:42.869Z,4.15
2022-08-30T16:58:18.895Z,3.33
2022-08-30T17:00:55.053Z,3.88
2022-08-30T17:03:26.973Z,3.70
2022-08-30T17:06:02.555Z,3.30
2022-08-30T17:08:35.973Z,3.47
2022-08-30T17:11:07.967Z,3.67
2022-08-30T17:13:39.397Z,4.18
2022-08-30T17:16:14.065Z,3.83
2022-08-30T17:18:45.369Z,3.92
2022-08-30T17:21:16.380Z,3.72
2022-08-30T17:23:48.402Z,3.33
2022-08-30T17:26:20.748Z,3.47
2022-08-30T17:28:51.542Z,3.30
2022-08-30T17:31:29.252Z,3.40
2022-08-30T17:34:03.324Z,4.07
2022-08-30T17:36:37.041Z,3.40
2022-08-30T17:39:10.935Z,3.67
2022-08-30T17:41:50.325Z,3.88
2022-08-30T17:44:25.766Z,4.00
2022-08-30T17:47:01.006Z,3.38
2022-08-30T17:49:33.773Z,3.38
2022-08-30T17:52:05.744Z,3.60
2022-08-30T17:54:37.746Z,3.40
2022-08-30T17:57:11.884Z,3.10
2022-08-30T17:59:43.511Z,3.67
2022-08-30T18:02:21.472Z,3.47
2022-08-30T18:04:57.342Z,3.40
2022-08-30T18:07:28.235Z,2.92
2022-08-30T18:09:59.142Z,3.80
2022-08-30T18:12:30.976Z,3.30
2022-08-30T18:15:12.267Z,3.03
2022-08-30T18:17:49.361Z,3.60
2022-08-30T18:20:21.425Z,3.05
2022-08-30T18:22:57.393Z,3.20
2022-08-30T18:25:28.861Z,3.17
2022-08-30T18:28:00.665Z,3.22
2022-08-30T18:30:34.714Z,3.35
2022-08-30T18:33:13.725Z,3.28
2022-08-30T18:35:48.440Z,3.35
2022-08-30T18:38:23.557Z,3.20
2022-08-30T18:40:55.440Z,3.30
2022-08-30T18:43:30.293Z,3.20
2022-08-30T18:46:06.203Z,3.28
2022-08-30T18:48:49.079Z,2.90
2022-08-30T18:51:22.344Z,3.55
2022-08-30T18:53:54.440Z,3.40
2022-08-30T18:56:27.988Z,3.15
2022-08-30T18:59:02.960Z,3.13
2022-08-30T19:01:39.301Z,2.90
2022-08-30T19:04:22.515Z,3.13
2022-08-30T19:07:05.604Z,3.05
2022-08-30T19:09:36.749Z,3.47
2022-08-30T19:12:09.817Z,3.15
2022-08-30T19:14:43.278Z,2.88
2022-08-30T19:17:14.395Z,2.92
2022-08-30T19:19:52.216Z,2.90
2022-08-30T19:22:27.560Z,2.92
2022-08-30T19:25:01.185Z,2.60
2022-08-30T19:27:37.012Z,2.90
2022-08-30T19:30:11.661Z,3.10
2022-08-30T19:32:43.897Z,2.65
2022-08-30T19:35:21.513Z,2.83
2022-08-30T19:37:52.325Z,2.63
2022-08-30T19:40:23.786Z,2.60
2022-08-30T19:42:57.000Z,3.03
2022-08-30T19:45:28.571Z,2.85
2022-08-30T19:48:00.691Z,2.80
2022-08-30T19:50:34.491Z,2.72
2022-08-30T19:53:08.048Z,2.78
2022-08-30T19:55:39.497Z,3.00
2022-08-30T19:58:10.599Z,2.67
2022-08-30T20:00:43.189Z,2.40
2022-08-30T20:03:24.206Z,2.60
2022-08-30T20:05:58.038Z,2.63
2022-08-30T20:08:30.419Z,2.50
2022-08-30T20:11:01.270Z,3.00
2022-08-30T20:13:34.345Z,2.42
2022-08-30T20:16:05.909Z,2.50
2022-08-30T20:18:36.921Z,2.92
2022-08-30T20:21:13.422Z,2.63
2022-08-30T20:23:45.058Z,2.60
2022-08-30T20:26:17.183Z,2.20
2022-08-30T20:28:48.350Z,2.70
2022-08-30T20:31:19.319Z,2.20
2022-08-30T20:33:50.517Z,2.53
2022-08-30T20:36:24.236Z,2.83
2022-08-30T20:41:31.016Z,2.50
2022-08-30T20:44:02.316Z,2.67
2022-08-30T20:46:34.405Z,2.63
2022-08-30T20:49:05.716Z,2.53
2022-08-30T20:51:39.531Z,2.20
2022-08-30T20:54:11.152Z,2.30
2022-08-30T20:56:42.410Z,2.40
2022-08-30T20:59:13.456Z,2.50
2022-08-30T21:01:44.622Z,2.65
2022-08-30T21:04:16.316Z,2.70
2022-08-30T21:06:50.082Z,2.50
2022-08-30T21:09:22.878Z,2.42
2022-08-30T21:11:53.908Z,2.50
2022-08-30T21:14:25.005Z,2.25
2022-08-30T21:16:55.905Z,2.08
2022-08-30T21:19:27.103Z,2.38
2022-08-30T21:22:00.678Z,2.95
2022-08-30T21:24:32.093Z,2.60
2022-08-30T21:27:03.324Z,2.75
2022-08-30T21:29:35.029Z,2.45
2022-08-30T21:32:06.395Z,2.75
2022-08-30T21:34:59.965Z,2.60
2022-08-30T21:37:35.920Z,2.95
2022-08-30T21:40:08.372Z,2.47
2022-08-30T21:42:42.179Z,2.47
2022-08-30T21:45:14.124Z,2.50
2022-08-30T21:47:45.288Z,2.20
2022-08-30T21:50:16.043Z,2.50
2022-08-30T21:52:49.419Z,2.50
2022-08-30T21:55:20.350Z,2.70
2022-08-30T21:57:51.159Z,2.85
2022-08-30T22:00:22.379Z,2.67
2022-08-30T22:02:53.465Z,2.55
2022-08-30T22:05:24.367Z,2.13
2022-08-30T22:07:58.012Z,2.90
2022-08-30T22:10:32.994Z,2.60
2022-08-30T22:13:04.444Z,2.90
2022-08-30T22:15:35.567Z,2.78
2022-08-30T22:18:08.848Z,2.88
2022-08-30T22:20:39.658Z,2.47
2022-08-30T22:23:15.841Z,2.38
2022-08-30T22:25:51.417Z,2.80
2022-08-30T22:28:22.817Z,2.50
2022-08-30T22:30:53.996Z,2.85
2022-08-30T22:33:25.052Z,2.70
2022-08-30T22:35:55.967Z,3.05
2022-08-30T22:38:29.468Z,2.95
2022-08-30T22:41:00.220Z,2.70
2022-08-30T22:43:31.208Z,2.47
2022-08-30T22:46:02.261Z,3.00
2022-08-30T22:48:33.316Z,2.30
2022-08-30T22:51:04.148Z,2.67
2022-08-30T22:53:37.950Z,1.92
2022-08-30T22:56:13.200Z,3.13
2022-08-30T22:58:44.112Z,2.67
2022-08-30T23:01:22.755Z,3.00
2022-08-30T23:03:53.886Z,3.63
2022-08-30T23:06:24.775Z,3.15
2022-08-30T23:08:58.136Z,2.78
2022-08-30T23:11:30.619Z,2.90
2022-08-30T23:14:04.057Z,2.85
2022-08-30T23:16:35.879Z,3.22
2022-08-30T23:19:08.027Z,3.05
2022-08-30T23:21:38.829Z,3.83
2022-08-30T23:24:25.249Z,3.33
2022-08-30T23:27:08.663Z,2.78
2022-08-30T23:29:52.030Z,2.63
2022-08-30T23:32:35.314Z,3.00
2022-08-30T23:35:19.756Z,3.28
2022-08-30T23:38:03.139Z,2.65
2022-08-30T23:40:48.985Z,3.47
2022-08-30T23:43:32.299Z,3.10
2022-08-30T23:46:19.139Z,2.90
2022-08-30T23:51:45.700Z,2.55
2022-08-30T23:54:28.808Z,3.30
2022-08-30T23:57:14.452Z,3.25
2022-08-30T23:59:57.491Z,3.13
